Jump River, Wisconsin
Current Conditions -  °F | °C
As of 9:15 AM on Tuesday 21 Oct 2014 (Local Time) from KRCX Reporting Station
Overcast Overcast  
Wind Chill: 37°   Ceiling: 1900
Heat Index: 42°   Visibility: 10mi
Dew Point: 35°   Wind: 8mph
Humidity: 77%   Direction: 60°ENE
Pressure: 30.24"   Gusts: NA
Location:  45.35°N, 90.8°W
Report Text: KRCX 211415Z AUTO 06007KT 10SM OVC019 06/02 A3024 RMK AO2 T00550017
Loading
Personal Weather Stations






























Interactive Weather Map
Tropical Storm Tracking
New forecast layout! Learn more

10-Day Weather Forecast

Advertisements
Track Severe Weather on mobile